createdAt,value
2022-09-07T00:02:20.574Z,100061.50
2022-09-07T00:04:47.292Z,100064.88
2022-09-07T00:07:14.040Z,100063.03
2022-09-07T00:09:40.725Z,100059.66
2022-09-07T00:12:07.423Z,100065.78
2022-09-07T00:14:56.027Z,100052.84
2022-09-07T00:17:22.652Z,100055.25
2022-09-07T00:19:49.820Z,100056.63
2022-09-07T00:22:16.446Z,100059.97
2022-09-07T00:24:43.159Z,100043.81
2022-09-07T00:27:11.249Z,100050.41
2022-09-07T00:30:36.466Z,100046.84
2022-09-07T00:33:53.695Z,100048.44
2022-09-07T00:36:22.425Z,100052.25
2022-09-07T00:38:49.906Z,100044.44
2022-09-07T00:41:17.780Z,100039.66
2022-09-07T00:43:47.876Z,100039.81
2022-09-07T00:46:17.269Z,100034.94
2022-09-07T00:49:22.801Z,100037.47
2022-09-07T00:51:58.829Z,100035.47
2022-09-07T00:54:33.345Z,100043.44
2022-09-07T00:57:00.459Z,100044.97
2022-09-07T00:59:32.560Z,100041.75
2022-09-07T01:01:59.592Z,100036.31
2022-09-07T01:05:11.500Z,100037.53
2022-09-07T01:08:24.814Z,100039.38
2022-09-07T01:10:51.935Z,100038.34
2022-09-07T01:13:18.575Z,100036.41
2022-09-07T01:16:07.878Z,100036.75
2022-09-07T01:18:49.899Z,100036.53
2022-09-07T01:21:25.692Z,100043.25
2022-09-07T01:24:35.114Z,100035.62
2022-09-07T01:27:26.862Z,100030.66
2022-09-07T01:30:14.620Z,100031.62
2022-09-07T01:32:47.434Z,100032.22
2022-09-07T01:35:26.438Z,100031.66
2022-09-07T01:41:22.722Z,100030.78
2022-09-07T01:44:08.356Z,100028.16
2022-09-07T01:46:43.744Z,100022.03
2022-09-07T01:49:20.677Z,100029.09
2022-09-07T01:51:53.074Z,100021.75
2022-09-07T01:54:30.019Z,100027.28
2022-09-07T01:57:02.619Z,100009.84
2022-09-07T01:59:55.733Z,100016.50
2022-09-07T02:02:26.870Z,100019.81
2022-09-07T02:05:06.198Z,100020.72
2022-09-07T02:07:45.377Z,100011.81
2022-09-07T02:10:38.588Z,100015.03
2022-09-07T02:19:30.359Z,100007.44
2022-09-07T02:22:03.106Z,100010.59
2022-09-07T02:24:33.805Z,100013.13
2022-09-07T02:27:06.595Z,100013.13
2022-09-07T02:29:33.123Z,100011.53
2022-09-07T02:31:59.774Z,100000.03
2022-09-07T02:34:38.574Z,99999.66
2022-09-07T02:37:09.040Z,99999.75
2022-09-07T02:39:35.823Z,100001.75
2022-09-07T02:42:03.016Z,100000.50
2022-09-07T02:44:34.701Z,99993.87
2022-09-07T02:47:20.518Z,100004.84
2022-09-07T02:54:23.476Z,99989.59
2022-09-07T02:56:58.922Z,99983.78
2022-09-07T02:59:44.710Z,99978.50
2022-09-07T03:02:25.157Z,99978.34
2022-09-07T03:05:10.113Z,99976.25
2022-09-07T03:08:01.414Z,99983.09
2022-09-07T03:10:29.152Z,99989.47
2022-09-07T03:12:55.805Z,99984.03
2022-09-07T03:15:25.394Z,99990.25
2022-09-07T03:17:53.040Z,99981.94
2022-09-07T03:20:21.644Z,99984.03
2022-09-07T03:23:38.187Z,99982.16
2022-09-07T03:26:34.548Z,99990.91
2022-09-07T03:29:01.244Z,99984.22
2022-09-07T03:31:27.860Z,99989.22
2022-09-07T03:33:54.933Z,99984.03
2022-09-07T03:36:21.545Z,99983.53
2022-09-07T03:38:48.162Z,99980.53
2022-09-07T03:41:39.755Z,99984.31
2022-09-07T03:44:07.863Z,99986.59
2022-09-07T03:46:35.177Z,99985.66
2022-09-07T03:49:02.067Z,99987.84
2022-09-07T03:51:28.763Z,99980.72
2022-09-07T03:53:55.467Z,99986.84
2022-09-07T03:56:24.396Z,99993.69
2022-09-07T03:59:16.945Z,99996.31
2022-09-07T04:01:53.798Z,99997.00
2022-09-07T04:04:20.841Z,99999.94
2022-09-07T04:06:47.489Z,100008.03
2022-09-07T04:09:15.224Z,100007.56
2022-09-07T04:11:42.327Z,100004.91
2022-09-07T04:14:10.166Z,100007.69
2022-09-07T04:16:52.275Z,100006.50
2022-09-07T04:19:18.929Z,100005.59
2022-09-07T04:21:47.196Z,100018.09
2022-09-07T04:24:15.558Z,100005.16
2022-09-07T04:26:45.514Z,100002.78
2022-09-07T04:29:13.115Z,100007.19
2022-09-07T04:35:33.581Z,100010.84
2022-09-07T04:38:00.253Z,100017.91
2022-09-07T04:40:26.879Z,100012.84
2022-09-07T04:42:53.482Z,100013.91
2022-09-07T04:45:20.127Z,100022.06
2022-09-07T04:47:50.673Z,100018.19
2022-09-07T04:50:37.102Z,100025.22
2022-09-07T04:53:04.050Z,100028.72
2022-09-07T04:55:31.689Z,100033.81
2022-09-07T04:57:58.339Z,100034.59
2022-09-07T05:00:24.968Z,100031.47
2022-09-07T05:02:51.712Z,100031.62
2022-09-07T05:05:18.466Z,100032.88
2022-09-07T05:08:22.790Z,100035.38
2022-09-07T05:11:12.078Z,100037.94
2022-09-07T05:13:39.467Z,100029.44
2022-09-07T05:16:11.662Z,100029.53
2022-09-07T05:18:39.012Z,100036.28
2022-09-07T05:21:20.199Z,100026.50
2022-09-07T05:23:51.126Z,100034.47
2022-09-07T05:26:19.378Z,100034.25
2022-09-07T05:28:46.674Z,100045.78
2022-09-07T05:36:35.830Z,100048.66
2022-09-07T05:39:02.579Z,100057.50
2022-09-07T05:41:29.870Z,100046.75
2022-09-07T05:46:43.789Z,100061.00
2022-09-07T05:49:10.567Z,100059.16
2022-09-07T05:51:38.051Z,100046.25
2022-09-07T05:54:04.730Z,100056.56
2022-09-07T05:56:35.029Z,100053.72
2022-09-07T05:59:20.127Z,100060.56
2022-09-07T06:01:46.811Z,100056.25
2022-09-07T06:04:13.473Z,100062.28
2022-09-07T06:06:40.174Z,100064.00
2022-09-07T06:09:07.937Z,100067.72
2022-09-07T06:11:36.541Z,100066.66
2022-09-07T06:14:56.205Z,100066.25
2022-09-07T06:17:44.753Z,100068.00
2022-09-07T06:20:11.399Z,100068.88
2022-09-07T06:22:38.540Z,100068.81
2022-09-07T06:25:05.934Z,100066.38
2022-09-07T06:27:32.674Z,100066.72
2022-09-07T06:29:59.342Z,100073.41
2022-09-07T06:32:48.104Z,100067.59
2022-09-07T06:35:15.814Z,100065.09
2022-09-07T06:37:42.845Z,100060.59
2022-09-07T06:40:10.918Z,100062.75
2022-09-07T06:42:38.307Z,100051.47
2022-09-07T06:45:05.561Z,100060.81
2022-09-07T06:51:29.671Z,100054.09
2022-09-07T06:56:43.912Z,100060.91
2022-09-07T06:59:10.856Z,100063.59
2022-09-07T07:01:37.521Z,100059.00
2022-09-07T07:04:04.615Z,100055.91
2022-09-07T07:06:38.653Z,100053.06
2022-09-07T07:09:06.955Z,100059.44
2022-09-07T07:11:34.090Z,100056.53
2022-09-07T07:14:00.775Z,100059.41
2022-09-07T07:16:27.477Z,100066.00
2022-09-07T07:18:58.059Z,100065.66
2022-09-07T07:21:24.829Z,100062.97
2022-09-07T07:23:53.147Z,100065.81
2022-09-07T07:26:26.831Z,100076.31
2022-09-07T07:31:26.832Z,100073.81
2022-09-07T07:33:53.931Z,100068.00
2022-09-07T07:36:23.042Z,100073.69
2022-09-07T07:38:59.822Z,100068.63
2022-09-07T07:44:18.756Z,100071.06
2022-09-07T07:46:49.064Z,100074.16
2022-09-07T07:49:16.093Z,100070.78
2022-09-07T07:54:52.935Z,100069.19
2022-09-07T07:57:19.848Z,100061.69
2022-09-07T07:59:46.486Z,100063.34
2022-09-07T08:02:17.031Z,100056.84
2022-09-07T08:04:43.940Z,100058.38
2022-09-07T08:11:30.380Z,100065.75
2022-09-07T08:14:00.204Z,100058.88
2022-09-07T08:16:26.923Z,100065.72
2022-09-07T08:18:53.780Z,100061.66
2022-09-07T08:21:20.443Z,100066.50
2022-09-07T08:23:47.016Z,100066.66
2022-09-07T08:26:32.825Z,100058.72
2022-09-07T08:28:59.420Z,100056.28
2022-09-07T08:31:26.024Z,100052.84
2022-09-07T08:33:52.646Z,100035.62
2022-09-07T08:36:21.349Z,100041.84
2022-09-07T08:38:47.986Z,100045.62
2022-09-07T08:45:20.939Z,100053.38
2022-09-07T08:47:52.649Z,100050.34
2022-09-07T08:50:25.794Z,100047.37
2022-09-07T08:52:59.008Z,100056.47
2022-09-07T08:55:35.959Z,100045.44
2022-09-07T08:58:48.276Z,100049.56
2022-09-07T09:01:44.141Z,100047.34
2022-09-07T09:04:31.010Z,100041.38
2022-09-07T09:07:16.995Z,100044.03
2022-09-07T09:10:05.516Z,100028.62
2022-09-07T09:12:55.096Z,100036.19
2022-09-07T09:20:03.560Z,100041.78
2022-09-07T09:22:31.011Z,100040.31
2022-09-07T09:25:13.541Z,100038.59
2022-09-07T09:27:40.120Z,100036.66
2022-09-07T09:30:16.136Z,100034.84
2022-09-07T09:32:45.377Z,100032.75
2022-09-07T09:35:52.787Z,100037.88
2022-09-07T09:38:34.767Z,100026.41
2022-09-07T09:41:10.173Z,100028.16
2022-09-07T09:43:56.235Z,100029.34
2022-09-07T09:46:28.244Z,100022.88
2022-09-07T09:48:58.674Z,100020.94
2022-09-07T09:55:36.229Z,100013.63
2022-09-07T10:01:34.689Z,100016.13
2022-09-07T10:04:28.083Z,100010.69
2022-09-07T10:07:00.516Z,100014.78
2022-09-07T10:09:35.827Z,100013.25
2022-09-07T10:12:06.667Z,100008.38
2022-09-07T10:14:44.109Z,100014.00
2022-09-07T10:17:19.996Z,100004.84
2022-09-07T10:19:46.610Z,100002.53
2022-09-07T10:22:25.712Z,100005.75
2022-09-07T10:25:25.535Z,99996.13
2022-09-07T10:48:38.738Z,99997.78
2022-09-07T10:51:14.500Z,99990.19
2022-09-07T10:56:58.699Z,99990.97
2022-09-07T11:05:58.876Z,99986.59
2022-09-07T11:09:15.750Z,99985.75
2022-09-07T11:18:52.065Z,99984.16
2022-09-07T11:24:24.774Z,99972.09
2022-09-07T11:26:56.157Z,99960.34
2022-09-07T11:29:33.488Z,99967.59
2022-09-07T11:32:07.928Z,99958.00
2022-09-07T11:35:10.008Z,99963.56
2022-09-07T11:37:48.146Z,99971.53
2022-09-07T11:40:24.187Z,99954.25
2022-09-07T11:42:54.004Z,99953.19
2022-09-07T11:45:26.976Z,99950.78
2022-09-07T11:48:06.037Z,99951.97
2022-09-07T11:54:45.336Z,99951.91
2022-09-07T12:03:00.283Z,99940.37
2022-09-07T12:05:30.144Z,99946.31
2022-09-07T12:08:52.863Z,99933.84
2022-09-07T12:11:37.727Z,99940.94
2022-09-07T12:14:27.268Z,99932.09
2022-09-07T12:17:27.779Z,99935.53
2022-09-07T12:20:39.336Z,99931.34
2022-09-07T12:27:26.667Z,99925.50
2022-09-07T12:29:59.611Z,99918.84
2022-09-07T12:32:56.160Z,99926.91
2022-09-07T12:35:26.241Z,99925.37
2022-09-07T12:37:54.140Z,99929.19
2022-09-07T12:40:29.493Z,99931.97
2022-09-07T12:43:19.313Z,99920.38
2022-09-07T12:45:45.997Z,99924.34
2022-09-07T12:48:15.581Z,99924.22
2022-09-07T12:50:59.075Z,99923.34
2022-09-07T12:53:33.034Z,99922.16
2022-09-07T12:56:15.952Z,99912.97
2022-09-07T12:58:51.862Z,99913.34
2022-09-07T13:01:32.781Z,99908.06
2022-09-07T13:04:38.283Z,99903.59
2022-09-07T13:07:32.385Z,99918.19
2022-09-07T13:10:01.531Z,99904.69
2022-09-07T13:15:52.889Z,99903.63
2022-09-07T13:18:28.639Z,99902.44
2022-09-07T13:21:07.209Z,99895.50
2022-09-07T13:23:34.655Z,99890.94
2022-09-07T13:26:03.907Z,99894.09
2022-09-07T13:28:55.880Z,99886.06
2022-09-07T13:31:43.181Z,99881.94
2022-09-07T13:34:34.118Z,99885.19
2022-09-07T13:37:06.384Z,99885.53
2022-09-07T13:39:38.121Z,99878.72
2022-09-07T13:42:05.830Z,99875.22
2022-09-07T13:44:34.131Z,99877.28
2022-09-07T13:47:08.734Z,99872.41
2022-09-07T13:49:59.299Z,99871.94
2022-09-07T13:52:42.997Z,99866.34
2022-09-07T13:55:15.730Z,99868.06
2022-09-07T13:58:02.578Z,99857.97
2022-09-07T14:00:30.999Z,99849.22
2022-09-07T14:03:04.997Z,99855.19
2022-09-07T14:05:31.560Z,99851.72
2022-09-07T14:07:58.218Z,99854.06
2022-09-07T14:10:26.578Z,99846.91
2022-09-07T14:13:14.477Z,99851.25
2022-09-07T14:15:43.967Z,99844.38
2022-09-07T14:18:12.350Z,99844.41
2022-09-07T14:20:45.870Z,99845.91
2022-09-07T14:23:28.173Z,99839.91
2022-09-07T14:26:19.665Z,99847.53
2022-09-07T14:28:48.328Z,99847.13
2022-09-07T14:31:17.901Z,99847.13
2022-09-07T14:33:52.382Z,99845.53
2022-09-07T14:36:43.544Z,99846.78
2022-09-07T14:39:11.858Z,99841.59
2022-09-07T14:41:40.703Z,99838.78
2022-09-07T14:44:27.424Z,99835.59
2022-09-07T14:46:56.697Z,99835.56
2022-09-07T14:49:24.706Z,99837.97
2022-09-07T14:51:53.726Z,99835.97
2022-09-07T14:54:23.196Z,99833.59
2022-09-07T14:57:05.903Z,99839.59
2022-09-07T14:59:47.229Z,99831.59
2022-09-07T15:02:20.080Z,99833.19
2022-09-07T15:04:48.082Z,99829.22
2022-09-07T15:07:41.042Z,99826.37
2022-09-07T15:10:23.532Z,99826.84
2022-09-07T15:12:55.733Z,99833.25
2022-09-07T15:15:30.101Z,99837.28
2022-09-07T15:18:05.828Z,99834.47
2022-09-07T15:20:41.498Z,99834.47
2022-09-07T15:23:17.823Z,99836.09
2022-09-07T15:25:50.918Z,99833.66
2022-09-07T15:34:02.324Z,99822.44
2022-09-07T15:36:31.876Z,99824.06
2022-09-07T15:39:00.304Z,99827.69
2022-09-07T15:41:28.511Z,99826.47
2022-09-07T15:43:56.805Z,99827.25
2022-09-07T15:46:25.066Z,99831.72
2022-09-07T15:48:54.452Z,99827.28
2022-09-07T15:54:14.264Z,99824.50
2022-09-07T15:56:43.681Z,99832.16
2022-09-07T15:59:12.042Z,99837.00
2022-09-07T16:01:56.478Z,99836.62
2022-09-07T16:04:24.071Z,99842.28
2022-09-07T16:06:50.919Z,99839.47
2022-09-07T16:09:21.131Z,99841.50
2022-09-07T16:11:50.057Z,99841.50
2022-09-07T16:14:17.853Z,99836.66
2022-09-07T16:19:34.969Z,99833.09
2022-09-07T16:22:02.140Z,99833.91
2022-09-07T16:24:29.117Z,99828.72
2022-09-07T16:26:55.674Z,99819.88
2022-09-07T16:29:22.232Z,99825.13
2022-09-07T16:34:35.443Z,99819.88
2022-09-07T16:37:02.261Z,99819.94
2022-09-07T16:39:32.151Z,99814.34
2022-09-07T16:42:00.093Z,99813.94
2022-09-07T16:44:26.832Z,99811.16
2022-09-07T16:46:53.515Z,99812.38
2022-09-07T16:49:20.154Z,99808.41
2022-09-07T16:51:46.810Z,99793.94
2022-09-07T16:54:15.743Z,99798.41
2022-09-07T16:56:42.422Z,99790.00
2022-09-07T16:59:28.088Z,99791.22
2022-09-07T17:01:54.711Z,99789.56
2022-09-07T17:04:21.448Z,99781.16
2022-09-07T17:06:48.184Z,99777.56
2022-09-07T17:09:15.018Z,99776.81
2022-09-07T17:11:42.065Z,99774.44
2022-09-07T17:14:58.676Z,99771.66
2022-09-07T17:17:47.593Z,99772.03
2022-09-07T17:20:14.415Z,99775.22
2022-09-07T17:22:41.122Z,99777.22
2022-09-07T17:25:08.219Z,99785.63
2022-09-07T17:27:34.767Z,99784.00
2022-09-07T17:30:01.388Z,99796.00
2022-09-07T17:32:29.974Z,99792.41
2022-09-07T17:34:56.626Z,99795.22
2022-09-07T17:37:23.218Z,99801.19
2022-09-07T17:39:49.914Z,99806.75
2022-09-07T17:42:17.056Z,99802.72
2022-09-07T17:44:43.684Z,99814.25
2022-09-07T17:47:10.306Z,99812.19
2022-09-07T17:49:36.921Z,99808.59
2022-09-07T17:52:03.661Z,99821.59
2022-09-07T17:54:30.244Z,99818.84
2022-09-07T17:56:56.900Z,99820.03
2022-09-07T18:02:13.839Z,99824.41
2022-09-07T18:04:40.672Z,99829.12
2022-09-07T18:07:07.323Z,99827.88
2022-09-07T18:09:34.035Z,99837.84
2022-09-07T18:12:00.606Z,99833.34
2022-09-07T18:14:28.321Z,99842.09
2022-09-07T18:16:55.110Z,99845.31
2022-09-07T18:19:21.847Z,99840.47
2022-09-07T18:21:49.026Z,99847.44
2022-09-07T18:24:25.084Z,99836.69
2022-09-07T18:26:53.861Z,99841.78
2022-09-07T18:29:33.708Z,99842.56
2022-09-07T18:32:05.561Z,99846.28
2022-09-07T18:34:34.925Z,99850.31
2022-09-07T18:37:01.689Z,99846.53
2022-09-07T18:39:28.463Z,99842.50
2022-09-07T18:41:55.311Z,99844.47
2022-09-07T18:47:08.846Z,99835.72
2022-09-07T18:49:35.461Z,99840.06
2022-09-07T18:54:50.282Z,99832.94
2022-09-07T18:57:16.967Z,99838.88
2022-09-07T18:59:43.681Z,99835.16
2022-09-07T19:02:10.831Z,99835.31
2022-09-07T19:07:29.586Z,99838.66
2022-09-07T19:09:56.726Z,99824.69
2022-09-07T19:12:24.279Z,99825.81
2022-09-07T19:14:51.169Z,99818.91
2022-09-07T19:17:17.972Z,99825.56
2022-09-07T19:19:44.666Z,99821.34
2022-09-07T19:22:11.298Z,99823.22
2022-09-07T19:24:38.203Z,99820.72
2022-09-07T19:27:04.864Z,99815.38
2022-09-07T19:29:31.423Z,99825.44
2022-09-07T19:32:04.185Z,99821.47
2022-09-07T19:34:39.079Z,99828.34
2022-09-07T19:37:07.380Z,99826.09
2022-09-07T19:39:34.334Z,99822.66
2022-09-07T19:42:02.594Z,99818.37
2022-09-07T19:44:29.130Z,99814.03
2022-09-07T20:06:13.045Z,99822.34
2022-09-07T20:23:34.065Z,99823.94
2022-09-07T20:26:19.849Z,99827.41
2022-09-07T21:00:42.406Z,99805.81
2022-09-07T22:02:16.322Z,99792.63
2022-09-07T22:07:30.983Z,99790.63
2022-09-07T22:10:10.219Z,99794.22
